createdAt,value
2022-11-07T00:01:16.436Z,6.53
2022-11-07T00:03:48.098Z,6.45
2022-11-07T00:06:20.239Z,6.38
2022-11-07T00:08:54.152Z,6.45
2022-11-07T00:11:26.490Z,6.50
2022-11-07T00:13:58.375Z,6.57
2022-11-07T00:16:30.717Z,6.50
2022-11-07T00:19:02.498Z,6.67
2022-11-07T00:21:34.672Z,6.73
2022-11-07T00:24:11.750Z,6.55
2022-11-07T00:26:44.366Z,6.47
2022-11-07T00:29:19.601Z,6.43
2022-11-07T00:31:52.234Z,6.37
2022-11-07T00:34:27.464Z,6.41
2022-11-07T00:36:59.769Z,6.50
2022-11-07T00:39:32.208Z,6.51
2022-11-07T00:42:05.113Z,6.58
2022-11-07T00:44:37.698Z,6.60
2022-11-07T00:47:09.846Z,6.66
2022-11-07T00:49:41.688Z,6.67
2022-11-07T00:52:13.666Z,6.61
2022-11-07T00:54:45.611Z,6.62
2022-11-07T00:57:17.593Z,6.68
2022-11-07T00:59:49.439Z,6.73
2022-11-07T01:02:21.788Z,6.77
2022-11-07T01:05:12.036Z,6.77
2022-11-07T01:07:43.924Z,6.83
2022-11-07T01:10:15.625Z,6.86
2022-11-07T01:12:47.411Z,6.82
2022-11-07T01:15:19.817Z,6.70
2022-11-07T01:17:51.941Z,6.68
2022-11-07T01:20:24.167Z,6.67
2022-11-07T01:22:56.509Z,6.65
2022-11-07T01:25:28.327Z,6.66
2022-11-07T01:28:00.185Z,6.77
2022-11-07T01:30:32.688Z,6.81
2022-11-07T01:33:04.663Z,6.70
2022-11-07T01:35:37.865Z,6.64
2022-11-07T01:38:12.281Z,6.53
2022-11-07T01:41:04.220Z,6.57
2022-11-07T01:43:49.581Z,6.58
2022-11-07T01:46:22.436Z,6.53
2022-11-07T01:48:57.612Z,6.50
2022-11-07T01:51:32.442Z,6.46
2022-11-07T01:54:05.562Z,6.40
2022-11-07T01:56:41.353Z,6.47
2022-11-07T01:59:17.159Z,6.56
2022-11-07T02:01:54.575Z,6.48
2022-11-07T02:04:27.539Z,6.48
2022-11-07T02:07:03.059Z,6.46
2022-11-07T02:09:35.525Z,6.50
2022-11-07T02:12:08.477Z,6.45
2022-11-07T02:14:42.756Z,6.47
2022-11-07T02:17:15.727Z,6.53
2022-11-07T02:19:51.034Z,6.63
2022-11-07T02:22:30.787Z,6.61
2022-11-07T02:25:05.135Z,6.60
2022-11-07T02:27:39.369Z,6.57
2022-11-07T02:30:14.665Z,6.56
2022-11-07T02:32:47.416Z,6.51
2022-11-07T02:35:35.579Z,6.57
2022-11-07T02:38:12.255Z,6.59
2022-11-07T02:40:47.249Z,6.64
2022-11-07T02:43:22.298Z,6.67
2022-11-07T02:45:54.888Z,6.67
2022-11-07T02:48:31.411Z,6.65
2022-11-07T02:51:03.519Z,6.67
2022-11-07T02:53:35.444Z,6.63
2022-11-07T02:56:08.262Z,6.61
2022-11-07T02:58:38.563Z,6.65
2022-11-07T03:01:12.450Z,6.62
2022-11-07T03:03:47.393Z,6.59
2022-11-07T03:06:21.554Z,6.56
2022-11-07T03:08:54.033Z,6.49
2022-11-07T03:11:25.708Z,6.45
2022-11-07T03:13:57.866Z,6.42
2022-11-07T03:16:29.561Z,6.32
2022-11-07T03:19:01.261Z,6.35
2022-11-07T03:21:32.910Z,6.47
2022-11-07T03:24:05.170Z,6.52
2022-11-07T03:26:37.468Z,6.48
2022-11-07T03:29:09.291Z,6.52
2022-11-07T03:31:40.993Z,6.52
2022-11-07T03:34:13.247Z,6.51
2022-11-07T03:36:45.055Z,6.51
2022-11-07T03:39:18.556Z,6.50
2022-11-07T03:41:54.282Z,6.46
2022-11-07T03:44:26.196Z,6.36
2022-11-07T03:46:58.178Z,6.37
2022-11-07T03:49:30.816Z,6.35
2022-11-07T03:52:02.807Z,6.39
2022-11-07T03:54:34.492Z,6.32
2022-11-07T03:57:06.341Z,6.33
2022-11-07T03:59:39.795Z,6.30
2022-11-07T04:02:11.920Z,6.35
2022-11-07T04:04:44.068Z,6.36
2022-11-07T04:07:15.748Z,6.37
2022-11-07T04:09:47.548Z,6.40
2022-11-07T04:12:37.814Z,6.43
2022-11-07T04:15:30.776Z,6.35
2022-11-07T04:18:02.560Z,6.41
2022-11-07T04:20:34.309Z,6.43
2022-11-07T04:23:06.135Z,6.43
2022-11-07T04:25:55.506Z,6.40
2022-11-07T04:28:27.831Z,6.30
2022-11-07T04:30:59.968Z,6.38
2022-11-07T04:33:32.103Z,6.38
2022-11-07T04:36:04.622Z,6.42
2022-11-07T04:38:36.457Z,6.43
2022-11-07T04:41:18.829Z,6.40
2022-11-07T04:43:50.891Z,6.44
2022-11-07T04:46:24.139Z,6.39
2022-11-07T04:48:55.903Z,6.51
2022-11-07T04:51:27.806Z,6.56
2022-11-07T04:54:01.438Z,6.58
2022-11-07T04:56:34.697Z,6.66
2022-11-07T04:59:07.834Z,6.64
2022-11-07T05:01:40.312Z,6.64
2022-11-07T05:04:12.402Z,6.68
2022-11-07T05:06:44.609Z,6.68
2022-11-07T05:09:19.267Z,6.59
2022-11-07T05:11:51.289Z,6.67
2022-11-07T05:14:23.439Z,6.69
2022-11-07T05:16:57.030Z,6.69
2022-11-07T05:19:28.686Z,6.74
2022-11-07T05:22:14.328Z,6.76
2022-11-07T05:24:46.005Z,6.77
2022-11-07T05:27:22.182Z,6.77
2022-11-07T05:29:54.989Z,6.79
2022-11-07T05:32:26.877Z,6.80
2022-11-07T05:34:58.656Z,6.81
2022-11-07T05:37:30.850Z,6.85
2022-11-07T05:40:03.161Z,6.87
2022-11-07T05:42:34.985Z,6.89
2022-11-07T05:45:08.513Z,6.90
2022-11-07T05:47:40.176Z,6.93
2022-11-07T05:50:12.441Z,6.96
2022-11-07T05:52:44.385Z,6.94
2022-11-07T05:55:16.701Z,6.93
2022-11-07T05:57:48.713Z,6.94
2022-11-07T06:00:21.946Z,6.96
2022-11-07T06:03:03.654Z,6.98
2022-11-07T06:05:38.827Z,7.01
2022-11-07T06:08:14.799Z,7.02
2022-11-07T06:10:46.545Z,7.04
2022-11-07T06:13:18.915Z,7.01
2022-11-07T06:15:50.937Z,7.06
2022-11-07T06:18:23.839Z,7.09
2022-11-07T06:20:55.890Z,7.11
2022-11-07T06:23:27.693Z,7.12
2022-11-07T06:25:59.661Z,7.15
2022-11-07T06:28:31.472Z,7.13
2022-11-07T06:31:05.255Z,7.15
2022-11-07T06:33:37.002Z,7.18
2022-11-07T06:36:12.585Z,7.22
2022-11-07T06:38:44.415Z,7.18
2022-11-07T06:41:17.077Z,7.22
2022-11-07T06:43:51.221Z,7.25
2022-11-07T06:46:23.540Z,7.31
2022-11-07T06:48:55.329Z,7.33
2022-11-07T06:51:27.159Z,7.35
2022-11-07T06:53:59.116Z,7.36
2022-11-07T06:56:31.274Z,7.32
2022-11-07T06:59:03.130Z,7.27
2022-11-07T07:01:35.098Z,7.27
2022-11-07T07:04:06.950Z,7.20
2022-11-07T07:06:39.269Z,7.20
2022-11-07T07:09:10.947Z,7.28
2022-11-07T07:11:45.088Z,7.22
2022-11-07T07:14:16.755Z,7.20
2022-11-07T07:16:48.706Z,7.18
2022-11-07T07:19:20.861Z,7.19
2022-11-07T07:21:52.469Z,7.20
2022-11-07T07:24:24.222Z,7.30
2022-11-07T07:26:56.228Z,7.31
2022-11-07T07:29:28.321Z,7.30
2022-11-07T07:31:59.968Z,7.31
2022-11-07T07:34:31.999Z,7.49
2022-11-07T07:37:04.124Z,7.62
2022-11-07T07:39:35.904Z,7.72
2022-11-07T07:42:07.845Z,7.84
2022-11-07T07:44:40.298Z,7.95
2022-11-07T07:47:12.036Z,7.92
2022-11-07T07:49:43.769Z,7.94
2022-11-07T07:52:15.778Z,8.05
2022-11-07T07:54:48.863Z,8.13
2022-11-07T07:57:20.667Z,8.22
2022-11-07T07:59:52.458Z,8.27
2022-11-07T08:02:24.383Z,8.34
2022-11-07T08:04:56.128Z,8.37
2022-11-07T08:07:27.770Z,8.36
2022-11-07T08:10:09.859Z,8.41
2022-11-07T08:12:54.385Z,8.48
2022-11-07T08:15:26.381Z,8.53
2022-11-07T08:18:01.221Z,8.60
2022-11-07T08:20:33.368Z,8.66
2022-11-07T08:23:12.998Z,8.66
2022-11-07T08:25:52.976Z,8.68
2022-11-07T08:28:27.323Z,8.71
2022-11-07T08:31:00.749Z,8.66
2022-11-07T08:33:34.180Z,8.72
2022-11-07T08:36:08.044Z,8.73
2022-11-07T08:38:39.758Z,8.71
2022-11-07T08:41:11.632Z,8.68
2022-11-07T08:43:43.375Z,8.70
2022-11-07T08:46:15.088Z,8.78
2022-11-07T08:48:46.807Z,8.85
2022-11-07T08:51:18.457Z,8.99
2022-11-07T08:53:50.284Z,9.13
2022-11-07T08:56:22.037Z,9.13
2022-11-07T08:58:53.822Z,9.21
2022-11-07T09:01:25.666Z,9.23
2022-11-07T09:03:58.449Z,9.22
2022-11-07T09:06:32.964Z,9.29
2022-11-07T09:09:04.972Z,9.42
2022-11-07T09:11:36.757Z,9.48
2022-11-07T09:14:08.797Z,9.47
2022-11-07T09:16:40.545Z,9.44
2022-11-07T09:19:12.314Z,9.36
2022-11-07T09:21:45.541Z,9.40
2022-11-07T09:24:17.280Z,9.41
2022-11-07T09:26:49.099Z,9.46
2022-11-07T09:29:21.031Z,9.47
2022-11-07T09:31:53.690Z,9.54
2022-11-07T09:34:26.027Z,9.59
2022-11-07T09:36:57.978Z,9.60
2022-11-07T09:39:29.637Z,9.71
2022-11-07T09:42:07.889Z,9.77
2022-11-07T09:44:57.792Z,9.72
2022-11-07T09:47:36.997Z,9.71
2022-11-07T09:50:15.033Z,9.74
2022-11-07T09:52:55.061Z,9.74
2022-11-07T09:55:32.361Z,9.70
2022-11-07T09:58:07.231Z,9.78
2022-11-07T10:00:39.579Z,9.80
2022-11-07T10:03:13.241Z,9.82
2022-11-07T10:05:56.232Z,9.87
2022-11-07T10:08:36.457Z,9.91
2022-11-07T10:11:15.232Z,9.94
2022-11-07T10:13:57.881Z,9.90
2022-11-07T10:16:40.500Z,10.02
2022-11-07T10:19:24.793Z,10.05
2022-11-07T10:22:06.102Z,10.06
2022-11-07T10:24:50.042Z,10.14
2022-11-07T10:27:23.815Z,10.22
2022-11-07T10:29:56.645Z,10.31
2022-11-07T10:32:36.526Z,10.41
2022-11-07T10:35:26.297Z,10.45
2022-11-07T10:38:00.422Z,10.50
2022-11-07T10:40:38.489Z,10.45
2022-11-07T10:43:26.969Z,10.43
2022-11-07T10:46:00.358Z,10.43
2022-11-07T10:48:33.172Z,10.45
2022-11-07T10:51:05.303Z,10.45
2022-11-07T10:53:46.076Z,10.53
2022-11-07T10:56:21.501Z,10.66
2022-11-07T10:58:53.926Z,10.67
2022-11-07T11:01:28.968Z,10.59
2022-11-07T11:04:00.968Z,10.67
2022-11-07T11:06:33.580Z,10.81
2022-11-07T11:09:16.195Z,10.87
2022-11-07T11:11:51.479Z,10.93
2022-11-07T11:14:23.729Z,10.93
2022-11-07T11:16:57.605Z,10.98
2022-11-07T11:19:34.926Z,10.98
2022-11-07T11:22:17.383Z,11.02
2022-11-07T11:24:58.824Z,11.14
2022-11-07T11:27:35.323Z,11.16
2022-11-07T11:30:12.907Z,11.27
2022-11-07T11:32:51.626Z,11.34
2022-11-07T11:35:41.700Z,11.31
2022-11-07T11:38:21.171Z,11.22
2022-11-07T11:41:04.769Z,11.26
2022-11-07T11:43:47.664Z,11.27
2022-11-07T11:46:27.219Z,11.29
2022-11-07T11:49:02.394Z,11.36
2022-11-07T11:51:41.721Z,11.36
2022-11-07T11:54:16.367Z,11.27
2022-11-07T11:56:54.651Z,11.36
2022-11-07T11:59:46.251Z,11.69
2022-11-07T12:03:02.995Z,11.94
2022-11-07T12:06:18.297Z,12.19
2022-11-07T12:09:01.740Z,12.45
2022-11-07T12:11:44.257Z,12.56
2022-11-07T12:14:35.273Z,12.61
2022-11-07T12:17:15.735Z,12.66
2022-11-07T12:20:00.442Z,12.74
2022-11-07T12:22:46.066Z,12.86
2022-11-07T12:25:26.840Z,12.85
2022-11-07T12:28:11.256Z,12.75
2022-11-07T12:30:54.060Z,12.72
2022-11-07T12:33:34.909Z,12.61
2022-11-07T12:36:14.433Z,12.47
2022-11-07T12:39:08.832Z,12.44
2022-11-07T12:41:51.527Z,12.48
2022-11-07T12:44:34.766Z,12.48
2022-11-07T12:47:16.593Z,12.47
2022-11-07T12:50:01.177Z,12.34
2022-11-07T12:52:44.541Z,12.24
2022-11-07T12:55:25.826Z,12.30
2022-11-07T12:57:59.839Z,12.23
2022-11-07T13:00:32.143Z,12.25
2022-11-07T13:03:19.480Z,12.28
2022-11-07T13:06:03.947Z,12.23
2022-11-07T13:08:42.607Z,12.29
2022-11-07T13:11:23.851Z,12.28
2022-11-07T13:14:21.073Z,12.26
2022-11-07T13:17:13.014Z,12.19
2022-11-07T13:19:46.228Z,12.23
2022-11-07T13:22:32.901Z,12.19
2022-11-07T13:25:27.100Z,12.17
2022-11-07T13:28:28.418Z,12.17
2022-11-07T13:31:06.735Z,12.12
2022-11-07T13:33:39.818Z,12.15
2022-11-07T13:36:28.160Z,12.09
2022-11-07T13:39:04.011Z,12.01
2022-11-07T13:41:36.446Z,11.98
2022-11-07T13:44:16.758Z,12.08
2022-11-07T13:46:51.889Z,12.08
2022-11-07T13:49:33.332Z,11.99
2022-11-07T13:52:10.353Z,12.00
2022-11-07T13:54:48.805Z,12.07
2022-11-07T13:57:25.535Z,12.06
2022-11-07T14:00:00.997Z,12.05
2022-11-07T14:02:36.092Z,12.04
2022-11-07T14:05:16.380Z,12.02
2022-11-07T14:07:54.164Z,12.09
2022-11-07T14:10:31.693Z,12.11
2022-11-07T14:13:08.207Z,12.12
2022-11-07T14:15:47.992Z,12.14
2022-11-07T14:18:21.650Z,12.10
2022-11-07T14:20:55.609Z,12.11
2022-11-07T14:23:29.674Z,12.07
2022-11-07T14:26:05.869Z,12.08
2022-11-07T14:28:40.398Z,12.07
2022-11-07T14:31:19.299Z,12.04
2022-11-07T14:33:53.884Z,11.98
2022-11-07T14:36:26.105Z,12.04
2022-11-07T14:39:04.509Z,12.06
2022-11-07T14:41:41.648Z,12.06
2022-11-07T14:44:18.740Z,12.06
2022-11-07T14:46:52.954Z,12.08
2022-11-07T14:49:28.749Z,12.03
2022-11-07T14:52:01.309Z,12.07
2022-11-07T14:54:39.086Z,12.09
2022-11-07T14:57:14.303Z,12.11
2022-11-07T14:59:46.877Z,12.12
2022-11-07T15:02:28.901Z,12.09
2022-11-07T15:05:10.701Z,12.09
2022-11-07T15:07:51.001Z,12.04
2022-11-07T15:10:33.039Z,12.09
2022-11-07T15:13:07.280Z,12.04
2022-11-07T15:15:39.366Z,12.03
2022-11-07T15:18:29.293Z,12.00
2022-11-07T15:21:02.812Z,11.96
2022-11-07T15:23:36.140Z,11.93
2022-11-07T15:26:21.197Z,11.88
2022-11-07T15:28:54.809Z,11.85
2022-11-07T15:31:28.961Z,11.83
2022-11-07T15:34:03.888Z,11.75
2022-11-07T15:36:40.843Z,11.73
2022-11-07T15:39:16.053Z,11.70
2022-11-07T15:41:48.582Z,11.71
2022-11-07T15:44:20.336Z,11.68
2022-11-07T15:46:52.096Z,11.68
2022-11-07T15:49:24.385Z,11.66
2022-11-07T15:51:56.207Z,11.64
2022-11-07T15:54:28.863Z,11.59
2022-11-07T15:57:02.609Z,11.56
2022-11-07T15:59:34.689Z,11.54
2022-11-07T16:02:05.398Z,11.55
2022-11-07T16:04:39.642Z,11.50
2022-11-07T16:07:15.453Z,11.48
2022-11-07T16:09:48.377Z,11.44
2022-11-07T16:12:19.361Z,11.43
2022-11-07T16:14:49.511Z,11.42
2022-11-07T16:17:20.550Z,11.40
2022-11-07T16:19:50.731Z,11.39
2022-11-07T16:22:20.981Z,11.36
2022-11-07T16:24:51.170Z,11.32
2022-11-07T16:27:21.364Z,11.32
2022-11-07T16:29:51.664Z,11.31
2022-11-07T16:32:22.191Z,11.27
2022-11-07T16:34:52.450Z,11.27
2022-11-07T16:37:22.687Z,11.26
2022-11-07T16:39:52.852Z,11.24
2022-11-07T16:42:23.108Z,11.22
2022-11-07T16:44:53.324Z,11.18
2022-11-07T16:47:24.068Z,11.16
2022-11-07T16:49:56.078Z,11.17
2022-11-07T16:52:28.341Z,11.17
2022-11-07T16:54:59.242Z,11.17
2022-11-07T16:57:29.633Z,11.14
2022-11-07T17:00:00.186Z,11.12
2022-11-07T17:02:31.246Z,11.10
2022-11-07T17:05:01.542Z,11.11
2022-11-07T17:07:31.754Z,11.10
2022-11-07T17:10:01.902Z,10.94
2022-11-07T17:12:32.078Z,10.99
2022-11-07T17:15:02.260Z,11.06
2022-11-07T17:17:32.550Z,11.06
2022-11-07T17:20:02.665Z,11.12
2022-11-07T17:22:33.366Z,11.07
2022-11-07T17:25:03.975Z,11.09
2022-11-07T17:27:34.245Z,11.11
2022-11-07T17:30:08.485Z,11.05
2022-11-07T17:32:39.366Z,11.09
2022-11-07T17:35:31.165Z,11.10
2022-11-07T17:38:01.744Z,11.06
2022-11-07T17:40:33.093Z,11.10
2022-11-07T17:43:03.312Z,11.09
2022-11-07T17:45:33.530Z,11.13
2022-11-07T17:48:03.737Z,11.15
2022-11-07T17:50:34.152Z,11.15
2022-11-07T17:53:04.446Z,11.13
2022-11-07T17:55:34.706Z,11.23
2022-11-07T17:58:04.847Z,11.16
2022-11-07T18:00:35.484Z,11.15
2022-11-07T18:03:06.056Z,11.18
2022-11-07T18:05:36.564Z,11.24
2022-11-07T18:08:07.311Z,11.28
2022-11-07T18:10:42.082Z,11.26
2022-11-07T18:13:13.185Z,11.25
2022-11-07T18:15:43.373Z,11.24
2022-11-07T18:18:13.604Z,11.24
2022-11-07T18:20:43.712Z,11.29
2022-11-07T18:23:13.956Z,11.26
2022-11-07T18:25:44.541Z,11.31
2022-11-07T18:28:14.995Z,11.31
2022-11-07T18:30:45.574Z,11.32
2022-11-07T18:33:15.873Z,11.31
2022-11-07T18:35:46.102Z,11.31
2022-11-07T18:38:16.544Z,11.31
2022-11-07T18:40:55.545Z,11.31
2022-11-07T18:43:25.786Z,11.35
2022-11-07T18:45:56.913Z,11.37
2022-11-07T18:48:27.542Z,11.36
2022-11-07T18:50:57.849Z,11.34
2022-11-07T18:53:29.307Z,11.36
2022-11-07T18:56:00.082Z,11.40
2022-11-07T18:58:31.302Z,11.42
2022-11-07T19:01:04.386Z,11.42
2022-11-07T19:03:35.333Z,11.45
2022-11-07T19:06:06.324Z,11.43
2022-11-07T19:08:38.231Z,11.41
2022-11-07T19:11:09.731Z,11.43
2022-11-07T19:13:41.118Z,11.40
2022-11-07T19:16:12.549Z,11.40
2022-11-07T19:18:48.030Z,11.38
2022-11-07T19:21:21.519Z,11.41
2022-11-07T19:23:52.146Z,11.42
2022-11-07T19:26:22.317Z,11.46
2022-11-07T19:28:54.461Z,11.40
2022-11-07T19:31:30.710Z,11.34
2022-11-07T19:34:06.541Z,11.36
2022-11-07T19:36:39.652Z,11.38
2022-11-07T19:39:13.294Z,11.39
2022-11-07T19:41:46.630Z,11.39
2022-11-07T19:44:18.269Z,11.36
2022-11-07T19:46:49.455Z,11.35
2022-11-07T19:49:20.495Z,11.39
2022-11-07T19:51:52.516Z,11.43
2022-11-07T19:54:25.068Z,11.44
2022-11-07T19:56:57.596Z,11.44
2022-11-07T19:59:29.658Z,11.39
2022-11-07T20:02:30.735Z,11.44
2022-11-07T20:04:52.177Z,11.40
2022-11-07T20:07:25.910Z,11.39
2022-11-07T20:10:02.279Z,11.39
2022-11-07T20:12:40.127Z,11.37
2022-11-07T20:15:17.949Z,11.42
2022-11-07T20:17:54.242Z,11.40
2022-11-07T20:20:25.786Z,11.42
2022-11-07T20:22:56.987Z,11.43
2022-11-07T20:25:29.323Z,11.46
2022-11-07T20:28:01.495Z,11.47
2022-11-07T20:30:33.963Z,11.42
2022-11-07T20:33:05.613Z,11.46
2022-11-07T20:35:37.360Z,11.47
2022-11-07T20:38:11.995Z,11.51
2022-11-07T20:40:44.293Z,11.52
2022-11-07T20:43:16.707Z,11.53
2022-11-07T20:45:48.682Z,11.51
2022-11-07T20:48:20.337Z,11.56
2022-11-07T20:50:51.593Z,11.47
2022-11-07T20:53:22.642Z,11.36
2022-11-07T20:55:54.852Z,11.43
2022-11-07T20:58:30.623Z,11.45
2022-11-07T21:01:04.968Z,11.42
2022-11-07T21:03:37.134Z,11.47
2022-11-07T21:06:11.726Z,11.47
2022-11-07T21:08:45.313Z,11.43
2022-11-07T21:11:18.615Z,11.43
2022-11-07T21:13:53.504Z,11.43
2022-11-07T21:16:26.684Z,11.44
2022-11-07T21:18:58.299Z,11.46
2022-11-07T21:21:31.588Z,11.45
2022-11-07T21:24:03.206Z,11.40
2022-11-07T21:26:35.633Z,11.40
2022-11-07T21:29:08.632Z,11.32
2022-11-07T21:31:42.143Z,11.35
2022-11-07T21:34:14.418Z,11.38
2022-11-07T21:36:46.712Z,11.42
2022-11-07T21:39:18.338Z,11.43
2022-11-07T21:41:50.788Z,11.48
2022-11-07T21:44:22.975Z,11.49
2022-11-07T21:46:54.009Z,11.53
2022-11-07T21:49:25.632Z,11.51
2022-11-07T21:51:59.110Z,11.52
2022-11-07T21:54:32.079Z,11.54
2022-11-07T21:57:05.121Z,11.55
2022-11-07T21:59:36.151Z,11.52
2022-11-07T22:02:07.142Z,11.53
2022-11-07T22:04:39.454Z,11.54
2022-11-07T22:07:10.966Z,11.56
2022-11-07T22:09:42.990Z,11.52
2022-11-07T22:12:14.225Z,11.55
2022-11-07T22:14:49.179Z,11.52
2022-11-07T22:17:19.878Z,12.71
2022-11-07T22:19:51.671Z,13.97
2022-11-07T22:22:23.141Z,13.26
2022-11-07T22:24:53.806Z,12.49
2022-11-07T22:27:24.565Z,12.31
2022-11-07T22:29:54.988Z,12.10
2022-11-07T22:32:25.245Z,11.99
2022-11-07T22:34:58.921Z,11.88
2022-11-07T22:37:29.129Z,11.89
2022-11-07T22:39:59.563Z,11.76
2022-11-07T22:42:30.097Z,11.85
2022-11-07T22:45:00.298Z,11.81
2022-11-07T22:47:30.463Z,11.76
2022-11-07T22:50:00.738Z,11.78
2022-11-07T22:52:31.116Z,11.78
2022-11-07T22:55:01.536Z,11.68
2022-11-07T22:57:31.780Z,11.65
2022-11-07T23:00:19.690Z,11.63
2022-11-07T23:02:50.992Z,11.62
2022-11-07T23:05:21.198Z,11.65
2022-11-07T23:07:51.677Z,11.68
2022-11-07T23:10:22.072Z,11.61
2022-11-07T23:12:52.412Z,11.63
2022-11-07T23:15:22.797Z,11.55
2022-11-07T23:17:52.964Z,11.54
2022-11-07T23:20:37.082Z,11.54
2022-11-07T23:23:07.250Z,11.51
2022-11-07T23:25:37.528Z,11.54
2022-11-07T23:28:08.445Z,11.42
2022-11-07T23:30:40.016Z,11.42
2022-11-07T23:33:10.251Z,11.42
2022-11-07T23:35:42.170Z,11.42
2022-11-07T23:38:12.661Z,11.44
2022-11-07T23:40:43.130Z,11.36
2022-11-07T23:43:14.338Z,11.37
2022-11-07T23:46:03.157Z,11.38
2022-11-07T23:48:51.395Z,11.34
2022-11-07T23:51:21.718Z,11.28
2022-11-07T23:54:09.765Z,11.26
2022-11-07T23:56:39.988Z,11.26
2022-11-07T23:59:27.784Z,11.19
